Time;durP1;ratioP1;P1;durP2;ratioP2;P2;SDS_P1;SDS_P2;PMS_P1;PMS_P2;Temp;Humidity;BMP_temperature;BMP_pressure;BME280_temperature;BME280_humidity;BME280_pressure;Samples;Min_cycle;Max_cycle;Signal;HPM_P1;HPM_P2
2020/12/30 00:00:06;;;;;;;20.40;11.98;;;3.60;99.90;;;;;;5041867;28;20037;-71
2020/12/30 00:02:32;;;;;;;16.13;11.65;;;3.60;99.90;;;;;;5025565;28;20111;-71
2020/12/30 00:04:58;;;;;;;16.70;11.40;;;3.50;99.90;;;;;;5025327;28;20124;-71
2020/12/30 00:07:24;;;;;;;15.02;10.85;;;3.50;99.90;;;;;;5035766;28;20026;-71
2020/12/30 00:09:50;;;;;;;16.25;11.63;;;3.50;99.90;;;;;;5024961;28;20045;-71
2020/12/30 00:12:22;;;;;;;17.50;11.77;;;3.50;99.90;;;;;;5026228;28;20095;-71
2020/12/30 00:14:48;;;;;;;17.83;12.75;;;3.60;99.90;;;;;;5027904;28;20093;-71
2020/12/30 00:17:16;;;;;;;15.90;11.23;;;3.50;99.90;;;;;;5026714;28;20141;-71
2020/12/30 00:19:41;;;;;;;16.50;11.57;;;3.50;99.90;;;;;;5026583;28;20080;-71
2020/12/30 00:22:09;;;;;;;19.55;11.95;;;3.50;99.90;;;;;;5026861;28;20049;-72
2020/12/30 00:24:35;;;;;;;14.25;10.73;;;3.50;99.90;;;;;;5028424;28;20033;-71
2020/12/30 00:27:04;;;;;;;15.95;11.20;;;3.50;99.90;;;;;;5028375;28;20382;-71
2020/12/30 00:29:32;;;;;;;15.80;11.27;;;3.50;99.90;;;;;;5058986;28;20049;-71
2020/12/30 00:31:57;;;;;;;15.48;11.48;;;3.50;99.90;;;;;;5027116;28;20041;-71
2020/12/30 00:34:25;;;;;;;17.42;12.32;;;3.40;99.90;;;;;;5028181;28;20077;-71
2020/12/30 00:36:51;;;;;;;17.33;11.65;;;3.40;99.90;;;;;;5026874;28;20090;-71
2020/12/30 00:39:17;;;;;;;19.20;10.98;;;3.50;99.90;;;;;;5023758;28;20109;-71
2020/12/30 00:41:51;;;;;;;15.40;10.15;;;3.50;99.90;;;;;;5058548;28;20356;-71
2020/12/30 00:44:16;;;;;;;17.02;11.45;;;3.50;99.90;;;;;;5026495;28;20030;-71
2020/12/30 00:46:44;;;;;;;15.73;11.05;;;3.40;99.90;;;;;;5026212;28;20044;-71
2020/12/30 00:49:10;;;;;;;15.35;11.07;;;3.40;99.90;;;;;;5060085;28;20036;-71
2020/12/30 00:51:36;;;;;;;15.05;10.45;;;3.40;99.90;;;;;;5027223;28;20037;-71
2020/12/30 00:54:05;;;;;;;16.33;10.77;;;3.40;99.90;;;;;;5028274;28;20044;-71
2020/12/30 00:56:33;;;;;;;15.98;10.90;;;3.40;99.90;;;;;;5025710;28;20037;-71
2020/12/30 00:58:59;;;;;;;16.23;11.25;;;3.40;99.90;;;;;;5026814;28;20499;-71
2020/12/30 01:01:27;;;;;;;16.10;11.32;;;3.40;99.90;;;;;;5026882;28;20056;-71
2020/12/30 01:03:52;;;;;;;15.32;10.70;;;3.40;99.90;;;;;;5039835;28;20040;-71
2020/12/30 01:06:18;;;;;;;17.02;11.25;;;3.40;99.90;;;;;;5023787;28;20034;-71
2020/12/30 01:08:44;;;;;;;18.98;12.07;;;3.40;99.90;;;;;;5058799;28;20033;-71
2020/12/30 01:11:12;;;;;;;16.75;11.82;;;3.40;99.90;;;;;;5026410;28;20031;-71
2020/12/30 01:13:38;;;;;;;15.43;10.50;;;3.40;99.90;;;;;;5023929;28;20029;-71
2020/12/30 01:16:03;;;;;;;16.52;10.75;;;3.40;99.90;;;;;;5024178;28;20048;-71
2020/12/30 01:18:31;;;;;;;18.67;11.38;;;3.40;99.90;;;;;;5024471;28;20625;-71
2020/12/30 01:21:02;;;;;;;15.27;10.32;;;3.40;99.90;;;;;;5042905;28;20036;-71
2020/12/30 01:23:28;;;;;;;17.17;10.98;;;3.40;99.90;;;;;;5025063;28;20030;-71
2020/12/30 01:26:00;;;;;;;18.30;11.88;;;3.40;99.90;;;;;;5058949;28;20040;-71
2020/12/30 01:28:26;;;;;;;10.93;7.50;;;3.40;99.90;;;;;;5025449;28;20039;-71
2020/12/30 01:30:51;;;;;;;16.25;11.07;;;3.40;99.90;;;;;;5026160;28;20029;-71
2020/12/30 01:33:17;;;;;;;17.67;11.48;;;3.40;99.90;;;;;;5025176;28;20065;-71
2020/12/30 01:35:45;;;;;;;16.92;11.40;;;3.40;99.90;;;;;;5041109;28;20049;-71
2020/12/30 01:38:13;;;;;;;17.63;10.52;;;3.40;99.90;;;;;;5022884;28;20117;-71
2020/12/30 01:40:44;;;;;;;20.45;11.85;;;3.40;99.90;;;;;;5027683;28;20034;-71
2020/12/30 01:43:12;;;;;;;18.00;11.70;;;3.40;99.90;;;;;;5027702;28;20053;-71
2020/12/30 01:45:40;;;;;;;19.23;11.65;;;3.50;99.90;;;;;;5025895;28;20030;-71
2020/12/30 01:48:09;;;;;;;18.70;11.27;;;3.40;99.90;;;;;;5026260;28;20083;-71
2020/12/30 01:50:35;;;;;;;18.75;11.55;;;3.40;99.90;;;;;;5043245;28;20574;-71
2020/12/30 01:53:01;;;;;;;17.50;11.30;;;3.50;99.90;;;;;;5057211;28;20044;-71
2020/12/30 01:55:27;;;;;;;17.60;11.20;;;3.50;99.90;;;;;;4994451;28;20205;-71
2020/12/30 01:57:52;;;;;;;16.48;11.02;;;3.50;99.90;;;;;;5042466;28;20025;-71
2020/12/30 02:00:18;;;;;;;20.75;12.20;;;3.50;99.90;;;;;;5025883;28;20029;-71
2020/12/30 02:02:56;;;;;;;18.30;10.35;;;3.50;99.90;;;;;;5026131;28;20021;-71
2020/12/30 02:05:24;;;;;;;16.48;11.05;;;3.50;99.90;;;;;;5058496;28;20037;-71
2020/12/30 02:07:50;;;;;;;16.90;11.63;;;3.50;99.90;;;;;;5021854;28;20029;-71
2020/12/30 02:10:18;;;;;;;14.77;9.80;;;3.50;99.90;;;;;;5003900;28;20029;-71
2020/12/30 02:12:44;;;;;;;16.63;10.32;;;3.60;99.90;;;;;;5026483;28;20128;-71
2020/12/30 02:15:30;;;;;;;16.05;9.93;;;3.60;99.90;;;;;;4989921;28;20048;-71
2020/12/30 02:17:59;;;;;;;17.92;11.15;;;3.60;99.90;;;;;;5040102;28;20048;-71
2020/12/30 02:20:33;;;;;;;17.83;11.80;;;3.60;99.90;;;;;;5056357;28;20033;-71
2020/12/30 02:23:03;;;;;;;15.68;10.05;;;3.60;99.90;;;;;;5023981;28;20555;-71
2020/12/30 02:25:29;;;;;;;15.10;9.80;;;3.60;99.90;;;;;;5025284;28;20041;-71
2020/12/30 02:27:54;;;;;;;15.65;9.68;;;3.60;99.90;;;;;;5056899;28;20040;-71
2020/12/30 02:30:20;;;;;;;17.50;11.18;;;3.60;99.90;;;;;;5024232;28;20032;-71
2020/12/30 02:32:46;;;;;;;16.00;9.90;;;3.70;99.90;;;;;;5025511;28;20113;-70
2020/12/30 02:35:13;;;;;;;17.45;10.82;;;3.70;99.90;;;;;;5056779;28;20025;-71
2020/12/30 02:37:38;;;;;;;14.70;10.15;;;3.70;99.90;;;;;;5021214;28;20041;-70
2020/12/30 02:40:05;;;;;;;16.67;10.18;;;3.70;99.90;;;;;;5024676;28;20076;-71
2020/12/30 02:42:31;;;;;;;19.08;11.07;;;3.70;99.90;;;;;;5056371;28;20056;-70
2020/12/30 02:45:01;;;;;;;20.35;12.68;;;3.70;99.90;;;;;;5025249;28;20116;-70
2020/12/30 02:47:27;;;;;;;16.73;11.25;;;3.70;99.90;;;;;;5023197;28;20021;-71
2020/12/30 02:49:58;;;;;;;17.25;10.98;;;3.80;99.90;;;;;;5025250;28;20033;-71
2020/12/30 02:52:26;;;;;;;15.60;10.35;;;3.80;99.90;;;;;;5025572;28;20021;-71
2020/12/30 02:54:52;;;;;;;17.35;11.73;;;3.80;99.90;;;;;;5024209;28;20095;-71
2020/12/30 02:57:20;;;;;;;18.25;11.68;;;3.80;99.90;;;;;;5025418;28;20025;-70
2020/12/30 02:59:55;;;;;;;16.40;11.38;;;3.80;99.90;;;;;;4990614;28;20084;-70
2020/12/30 03:02:22;;;;;;;17.20;11.35;;;3.90;99.90;;;;;;5025577;28;20025;-70
2020/12/30 03:04:48;;;;;;;18.40;11.80;;;3.90;99.90;;;;;;5024346;28;20022;-71
2020/12/30 03:07:18;;;;;;;15.98;10.93;;;3.90;99.90;;;;;;5025374;28;20033;-70
2020/12/30 03:09:44;;;;;;;17.02;11.40;;;3.90;99.90;;;;;;5055380;28;20041;-71
2020/12/30 03:12:09;;;;;;;19.83;12.32;;;3.90;99.90;;;;;;5023901;28;20028;-71
2020/12/30 03:14:40;;;;;;;26.52;15.63;;;3.90;99.90;;;;;;5024185;28;20446;-71
2020/12/30 03:17:08;;;;;;;22.98;14.20;;;3.90;99.90;;;;;;5024586;28;20438;-71
2020/12/30 03:19:38;;;;;;;21.25;13.90;;;3.90;99.90;;;;;;5022634;28;20026;-70
2020/12/30 03:22:04;;;;;;;25.02;15.32;;;3.90;99.90;;;;;;5023192;28;20482;-70
2020/12/30 03:24:32;;;;;;;19.83;12.30;;;3.90;99.90;;;;;;5039104;28;20049;-70
2020/12/30 03:26:57;;;;;;;19.77;12.13;;;3.90;99.90;;;;;;4341514;28;10000819;-71
2020/12/30 03:29:25;;;;;;;27.85;17.35;;;4.00;99.90;;;;;;5023317;28;20047;-71
2020/12/30 03:31:53;;;;;;;20.48;14.07;;;3.90;99.90;;;;;;5056279;28;20489;-70
2020/12/30 03:34:21;;;;;;;20.10;13.13;;;3.90;99.90;;;;;;5039693;28;20085;-70
2020/12/30 03:36:47;;;;;;;21.50;14.48;;;3.90;99.90;;;;;;5023448;28;20107;-71
2020/12/30 03:39:12;;;;;;;22.13;14.50;;;4.00;99.90;;;;;;5023826;28;20017;-71
2020/12/30 03:41:38;;;;;;;22.35;15.52;;;4.00;99.90;;;;;;5056781;28;20157;-71
2020/12/30 03:44:06;;;;;;;21.80;14.68;;;4.00;99.90;;;;;;5041309;28;20045;-70
2020/12/30 03:46:31;;;;;;;19.90;13.30;;;4.00;99.90;;;;;;5024605;28;20041;-71
2020/12/30 03:48:59;;;;;;;22.90;15.70;;;4.10;99.90;;;;;;5023329;28;20037;-71
2020/12/30 03:51:27;;;;;;;23.33;15.57;;;4.00;99.90;;;;;;5038830;28;20036;-71
2020/12/30 03:53:58;;;;;;;26.52;15.70;;;4.10;99.90;;;;;;5023418;28;20072;-70
2020/12/30 03:56:26;;;;;;;21.27;15.10;;;4.10;99.90;;;;;;5024902;28;20045;-71
2020/12/30 03:58:51;;;;;;;23.88;15.02;;;4.10;99.90;;;;;;5024076;28;20030;-71
2020/12/30 04:01:17;;;;;;;21.73;14.43;;;4.10;99.90;;;;;;5022837;28;20037;-70
2020/12/30 04:03:47;;;;;;;21.40;14.60;;;4.10;99.90;;;;;;5023878;28;20254;-71
2020/12/30 04:06:12;;;;;;;23.00;14.85;;;4.10;99.90;;;;;;5023521;28;20026;-71
2020/12/30 04:08:38;;;;;;;21.33;14.98;;;4.10;99.90;;;;;;5022999;28;20391;-70
2020/12/30 04:11:04;;;;;;;22.25;14.55;;;4.10;99.90;;;;;;5024859;28;20557;-71
2020/12/30 04:13:29;;;;;;;19.70;14.00;;;4.10;99.90;;;;;;5023357;28;20705;-70
2020/12/30 04:15:57;;;;;;;21.83;15.23;;;4.10;99.90;;;;;;5024176;28;20364;-70
2020/12/30 04:18:25;;;;;;;22.40;15.50;;;4.10;99.90;;;;;;5021543;28;20105;-71
2020/12/30 04:20:51;;;;;;;19.63;13.80;;;4.10;99.90;;;;;;5026841;28;20037;-71
2020/12/30 04:23:16;;;;;;;21.80;14.63;;;4.10;99.90;;;;;;5042177;28;20029;-71
2020/12/30 04:25:48;;;;;;;17.00;13.05;;;4.10;99.90;;;;;;5029786;28;20446;-71
2020/12/30 04:28:16;;;;;;;14.00;9.40;;;4.20;99.90;;;;;;5027653;28;20112;-71
2020/12/30 04:30:44;;;;;;;21.65;15.02;;;4.10;99.90;;;;;;5027048;28;20484;-71
2020/12/30 04:33:10;;;;;;;18.85;13.10;;;4.10;99.90;;;;;;5025486;28;20040;-71
2020/12/30 04:35:35;;;;;;;18.73;13.75;;;4.20;99.90;;;;;;5026694;28;20040;-71
2020/12/30 04:38:01;;;;;;;22.13;15.10;;;4.10;99.90;;;;;;5027547;28;20029;-71
2020/12/30 04:40:27;;;;;;;20.20;13.68;;;4.20;99.90;;;;;;5029179;28;20356;-71
2020/12/30 04:42:52;;;;;;;17.23;12.38;;;4.10;99.90;;;;;;5024896;28;20112;-71
2020/12/30 04:45:21;;;;;;;19.38;13.90;;;4.10;99.90;;;;;;5044055;28;20065;-71
2020/12/30 04:47:49;;;;;;;18.80;13.43;;;4.10;99.90;;;;;;5029027;28;20036;-71
2020/12/30 04:50:14;;;;;;;16.27;12.25;;;4.20;99.90;;;;;;5042110;28;20116;-71
2020/12/30 04:52:40;;;;;;;17.55;12.40;;;4.10;99.90;;;;;;5059477;28;20167;-71
2020/12/30 04:55:06;;;;;;;18.92;12.48;;;4.10;99.90;;;;;;5028419;28;20026;-71
2020/12/30 04:57:41;;;;;;;21.08;13.85;;;4.10;99.90;;;;;;5059790;28;20026;-71
2020/12/30 05:00:06;;;;;;;17.85;12.05;;;4.10;99.90;;;;;;5026213;28;20060;-71
2020/12/30 05:02:35;;;;;;;14.70;10.55;;;4.10;99.90;;;;;;5009728;28;20045;-71
2020/12/30 05:05:01;;;;;;;17.65;12.02;;;4.10;99.90;;;;;;5028845;28;20041;-71
2020/12/30 05:07:31;;;;;;;14.15;10.48;;;4.10;99.90;;;;;;5040562;28;20375;-71
2020/12/30 05:09:57;;;;;;;15.95;10.85;;;4.10;99.90;;;;;;5025820;28;20106;-71
2020/12/30 05:12:23;;;;;;;13.68;10.43;;;4.10;99.90;;;;;;5026889;28;20022;-70
2020/12/30 05:14:49;;;;;;;17.30;11.00;;;4.10;99.90;;;;;;5055005;28;20033;-71
2020/12/30 05:17:15;;;;;;;18.65;12.48;;;4.10;99.90;;;;;;5024242;28;20619;-71
2020/12/30 05:19:44;;;;;;;16.88;11.13;;;4.20;99.90;;;;;;5027332;28;20026;-71
2020/12/30 05:22:19;;;;;;;17.60;12.55;;;4.20;99.90;;;;;;5025516;28;20025;-71
2020/12/30 05:24:46;;;;;;;15.98;11.32;;;4.20;99.90;;;;;;5024832;28;20477;-71
2020/12/30 05:27:13;;;;;;;15.65;10.80;;;4.20;99.90;;;;;;5025565;28;20026;-71
2020/12/30 05:29:52;;;;;;;16.55;11.38;;;4.20;99.90;;;;;;5059168;28;20098;-71
2020/12/30 05:32:18;;;;;;;17.38;11.13;;;4.20;99.90;;;;;;5025847;28;20481;-71
2020/12/30 05:34:43;;;;;;;18.00;12.07;;;4.10;99.90;;;;;;5026827;28;20029;-71
2020/12/30 05:37:16;;;;;;;13.43;10.00;;;4.10;99.90;;;;;;5025955;28;20033;-71
2020/12/30 05:39:41;;;;;;;16.38;10.90;;;4.10;99.90;;;;;;5039900;28;20029;-70
2020/12/30 05:42:11;;;;;;;15.77;10.75;;;4.20;99.90;;;;;;5056097;28;20116;-70
2020/12/30 05:44:37;;;;;;;14.40;10.20;;;4.20;99.90;;;;;;5022817;28;20994;-70
2020/12/30 05:47:13;;;;;;;13.10;9.60;;;4.20;99.90;;;;;;5058010;28;20029;-71
2020/12/30 05:49:38;;;;;;;11.73;8.88;;;4.20;99.90;;;;;;5024394;28;20078;-70
2020/12/30 05:52:15;;;;;;;18.50;11.80;;;4.20;99.90;;;;;;5056524;28;20397;-70
2020/12/30 05:54:52;;;;;;;13.63;10.05;;;4.20;99.90;;;;;;5058351;28;20117;-71
2020/12/30 05:57:29;;;;;;;15.50;11.10;;;4.20;99.90;;;;;;5038776;28;20584;-71
2020/12/30 06:00:13;;;;;;;14.48;10.30;;;4.20;99.90;;;;;;5021990;28;20554;-71
2020/12/30 06:02:41;;;;;;;13.15;9.57;;;4.30;99.90;;;;;;5010359;28;20038;-71
2020/12/30 06:05:19;;;;;;;15.18;10.48;;;4.20;99.90;;;;;;5025979;28;20039;-71
2020/12/30 06:07:46;;;;;;;12.75;9.00;;;4.30;99.90;;;;;;5027880;28;20672;-71
2020/12/30 06:10:15;;;;;;;13.93;10.07;;;4.30;99.90;;;;;;5023728;28;20029;-70
2020/12/30 06:12:52;;;;;;;11.85;9.05;;;4.30;99.90;;;;;;5006727;28;20159;-70
2020/12/30 06:15:25;;;;;;;12.75;8.90;;;4.30;99.90;;;;;;5025853;28;20033;-70
2020/12/30 06:17:53;;;;;;;14.13;9.77;;;4.30;99.90;;;;;;5039798;28;20045;-71
2020/12/30 06:20:30;;;;;;;14.35;9.98;;;4.30;99.90;;;;;;5025810;28;20085;-70
2020/12/30 06:23:06;;;;;;;14.50;9.88;;;4.30;99.90;;;;;;5024785;28;20041;-70
2020/12/30 06:25:36;;;;;;;14.93;10.82;;;4.30;99.90;;;;;;5024380;28;20053;-71
2020/12/30 06:28:11;;;;;;;17.10;11.60;;;4.30;99.90;;;;;;5025812;28;20032;-71
2020/12/30 06:30:46;;;;;;;16.60;11.73;;;4.30;99.90;;;;;;5025579;28;20533;-70
2020/12/30 06:33:17;;;;;;;13.68;9.60;;;4.30;99.90;;;;;;5055649;28;20558;-71
2020/12/30 06:35:43;;;;;;;13.20;9.38;;;4.30;99.90;;;;;;5057327;28;20064;-70
2020/12/30 06:38:30;;;;;;;18.13;11.48;;;4.30;99.90;;;;;;5025418;28;20061;-71
2020/12/30 06:41:02;;;;;;;16.60;10.98;;;4.40;99.90;;;;;;5024369;28;20502;-71
2020/12/30 06:43:48;;;;;;;14.27;9.82;;;4.30;99.90;;;;;;5023960;28;20040;-71
2020/12/30 06:46:34;;;;;;;14.50;10.18;;;4.40;99.90;;;;;;5024921;28;20108;-70
2020/12/30 06:49:06;;;;;;;12.77;9.55;;;4.40;99.90;;;;;;5039443;28;20033;-71
2020/12/30 06:51:40;;;;;;;15.45;10.23;;;4.40;99.90;;;;;;5055219;28;20394;-70
2020/12/30 06:54:06;;;;;;;16.02;11.85;;;4.40;99.90;;;;;;5003858;28;20107;-71
2020/12/30 06:56:40;;;;;;;19.23;12.40;;;4.40;99.90;;;;;;5041706;28;20021;-70
2020/12/30 06:59:06;;;;;;;17.45;11.82;;;4.40;99.90;;;;;;5009770;28;20075;-70
2020/12/30 07:02:03;;;;;;;19.38;12.25;;;4.40;99.90;;;;;;5040395;28;20046;-71
2020/12/30 07:04:34;;;;;;;17.58;11.85;;;4.40;99.90;;;;;;5024770;28;20120;-70
2020/12/30 07:07:00;;;;;;;19.42;13.13;;;4.40;99.90;;;;;;5025211;28;20040;-71
2020/12/30 07:09:38;;;;;;;18.52;13.15;;;4.40;99.90;;;;;;5023042;28;20060;-71
2020/12/30 07:12:06;;;;;;;18.40;12.98;;;4.40;99.90;;;;;;5022858;28;20034;-71
2020/12/30 07:14:33;;;;;;;20.05;13.23;;;4.40;99.90;;;;;;5014161;28;20079;-71
2020/12/30 07:17:03;;;;;;;19.67;13.23;;;4.40;99.90;;;;;;5023962;28;20056;-70
2020/12/30 07:19:29;;;;;;;21.08;13.10;;;4.40;99.90;;;;;;5052957;28;20397;-71
2020/12/30 07:22:07;;;;;;;19.52;13.80;;;4.50;99.90;;;;;;5042672;28;20045;-71
2020/12/30 07:24:42;;;;;;;19.73;13.77;;;4.50;99.90;;;;;;5055106;28;20121;-71
2020/12/30 07:27:14;;;;;;;18.52;12.57;;;4.50;99.90;;;;;;5023975;28;20091;-71
2020/12/30 07:29:40;;;;;;;14.82;11.02;;;4.50;99.90;;;;;;5024351;28;20039;-71
2020/12/30 07:32:07;;;;;;;17.05;11.90;;;4.50;99.90;;;;;;5022513;28;20069;-71
2020/12/30 07:34:34;;;;;;;15.50;11.07;;;4.50;99.90;;;;;;5026241;28;20026;-71
2020/12/30 07:37:00;;;;;;;19.77;12.95;;;4.50;99.90;;;;;;5024629;28;20167;-71
2020/12/30 07:39:39;;;;;;;18.75;12.65;;;4.50;99.90;;;;;;5023131;28;20487;-70
2020/12/30 07:42:12;;;;;;;22.27;14.45;;;4.50;99.90;;;;;;5055317;28;20021;-71
2020/12/30 07:44:44;;;;;;;18.13;11.70;;;4.50;99.90;;;;;;5021301;28;20120;-71
2020/12/30 07:47:09;;;;;;;;;;;4.50;99.90;;;;;;5022872;28;20263;-71
2020/12/30 07:49:35;;;;;;;19.92;11.95;;;4.50;99.90;;;;;;5023427;28;20369;-71
2020/12/30 07:52:05;;;;;;;20.05;12.43;;;4.50;99.90;;;;;;5025479;28;20498;-70
2020/12/30 07:54:33;;;;;;;14.07;10.60;;;4.50;99.90;;;;;;5022560;28;20041;-71
2020/12/30 07:57:05;;;;;;;23.65;13.85;;;4.50;99.90;;;;;;5027305;28;20041;-71
2020/12/30 07:59:31;;;;;;;19.55;12.63;;;4.50;99.90;;;;;;5026908;28;20120;-71
2020/12/30 08:01:57;;;;;;;21.63;14.43;;;4.50;99.90;;;;;;5059499;28;20117;-71
2020/12/30 08:04:26;;;;;;;18.77;12.13;;;4.50;99.90;;;;;;5030464;28;20044;-71
2020/12/30 08:06:57;;;;;;;17.73;12.48;;;4.50;99.90;;;;;;5025288;28;20034;-71
2020/12/30 08:09:27;;;;;;;19.48;13.95;;;4.50;99.90;;;;;;5028858;28;20644;-71
2020/12/30 08:12:00;;;;;;;17.95;12.07;;;4.50;99.90;;;;;;5028975;28;20033;-70
2020/12/30 08:14:28;;;;;;;17.35;12.65;;;4.50;99.90;;;;;;5026109;28;20025;-71
2020/12/30 08:17:14;;;;;;;17.52;11.90;;;4.50;99.90;;;;;;5027947;28;20064;-71
2020/12/30 08:19:50;;;;;;;18.63;12.02;;;4.50;99.90;;;;;;5055321;28;20029;-71
2020/12/30 08:22:22;;;;;;;18.35;12.82;;;4.60;99.90;;;;;;5026186;28;20102;-71
2020/12/30 08:24:52;;;;;;;22.13;14.02;;;4.50;99.90;;;;;;5028084;28;20445;-71
2020/12/30 08:27:19;;;;;;;15.70;11.80;;;4.60;99.90;;;;;;5028073;28;20044;-71
2020/12/30 08:29:47;;;;;;;24.27;15.40;;;4.60;99.90;;;;;;5026524;28;20344;-71
2020/12/30 08:32:15;;;;;;;18.25;12.60;;;4.60;99.90;;;;;;5026170;28;20065;-71
2020/12/30 08:34:45;;;;;;;17.17;11.85;;;4.60;99.90;;;;;;5042434;28;20051;-71
2020/12/30 08:37:32;;;;;;;22.00;13.63;;;4.60;99.90;;;;;;5026931;28;20113;-70
2020/12/30 08:40:04;;;;;;;18.23;12.25;;;4.60;99.90;;;;;;5027626;28;20041;-71
2020/12/30 08:42:40;;;;;;;14.18;9.75;;;4.60;99.90;;;;;;5026816;28;20088;-71
2020/12/30 08:45:07;;;;;;;17.33;12.10;;;4.70;99.90;;;;;;5027361;28;20044;-71
2020/12/30 08:47:37;;;;;;;18.08;12.57;;;4.70;99.90;;;;;;5025547;28;20056;-71
2020/12/30 08:50:07;;;;;;;20.00;13.38;;;4.70;99.90;;;;;;5058817;28;20037;-71
2020/12/30 08:52:40;;;;;;;16.98;11.93;;;4.70;99.90;;;;;;5026052;28;20132;-70
2020/12/30 08:55:11;;;;;;;19.60;12.20;;;4.70;99.90;;;;;;5042817;28;20049;-70
2020/12/30 08:57:43;;;;;;;18.88;12.50;;;4.70;99.90;;;;;;5023408;28;20364;-71
2020/12/30 09:00:32;;;;;;;11.88;8.13;;;4.70;99.90;;;;;;5028534;28;20636;-70
2020/12/30 09:03:10;;;;;;;20.35;13.20;;;4.70;99.90;;;;;;5058580;28;20103;-71
2020/12/30 09:05:36;;;;;;;18.02;11.52;;;4.80;99.90;;;;;;5025393;28;20033;-71
2020/12/30 09:08:15;;;;;;;22.27;13.20;;;4.80;99.90;;;;;;5027358;28;20044;-71
2020/12/30 09:10:41;;;;;;;20.05;13.05;;;4.80;99.90;;;;;;5026813;28;20033;-71
2020/12/30 09:13:30;;;;;;;18.58;11.63;;;4.80;99.90;;;;;;5045344;28;20069;-71
2020/12/30 09:16:06;;;;;;;19.92;12.73;;;4.80;99.90;;;;;;5022835;28;20046;-71
2020/12/30 09:18:32;;;;;;;22.25;13.38;;;4.80;99.90;;;;;;5057007;28;20054;-71
2020/12/30 09:20:58;;;;;;;21.25;12.95;;;4.80;99.90;;;;;;5027665;28;20036;-71
2020/12/30 09:23:25;;;;;;;15.55;10.93;;;4.80;99.90;;;;;;5026156;28;20045;-71
2020/12/30 09:25:50;;;;;;;16.77;10.52;;;4.70;99.90;;;;;;5027097;28;20044;-71
2020/12/30 09:28:17;;;;;;;16.25;11.18;;;4.70;99.90;;;;;;5023094;28;20443;-71
2020/12/30 09:30:43;;;;;;;15.68;11.07;;;4.80;99.90;;;;;;5026691;28;20034;-71
2020/12/30 09:33:14;;;;;;;13.05;9.57;;;4.80;99.90;;;;;;5027533;28;20551;-71
2020/12/30 09:35:45;;;;;;;13.20;8.50;;;4.80;99.90;;;;;;5058515;28;20026;-71
2020/12/30 09:38:24;;;;;;;12.05;7.95;;;4.80;99.90;;;;;;5044431;28;20037;-71
2020/12/30 09:40:53;;;;;;;13.77;8.32;;;4.80;99.90;;;;;;5039694;28;20025;-71
2020/12/30 09:43:23;;;;;;;14.82;9.30;;;4.80;99.90;;;;;;5026566;28;20014;-71
2020/12/30 09:45:55;;;;;;;15.20;9.68;;;4.80;99.90;;;;;;5058266;28;20036;-71
2020/12/30 09:48:22;;;;;;;10.48;6.43;;;4.70;99.90;;;;;;5056260;28;20394;-71
2020/12/30 09:50:49;;;;;;;12.10;8.40;;;4.80;99.90;;;;;;5057253;28;20025;-71
2020/12/30 09:53:15;;;;;;;14.27;9.20;;;4.80;99.90;;;;;;5026754;28;20026;-71
2020/12/30 09:55:47;;;;;;;13.82;9.25;;;4.70;99.90;;;;;;5026992;28;20087;-71
2020/12/30 09:58:13;;;;;;;16.90;10.77;;;4.80;99.90;;;;;;5041081;28;20743;-71
2020/12/30 10:00:39;;;;;;;12.07;8.52;;;4.80;99.90;;;;;;5023014;28;20025;-71
2020/12/30 10:03:07;;;;;;;13.93;10.02;;;4.80;99.90;;;;;;5043613;28;20021;-71
2020/12/30 10:05:35;;;;;;;11.50;8.10;;;4.80;99.90;;;;;;5058357;28;20116;-71
2020/12/30 10:08:03;;;;;;;14.02;8.82;;;4.80;99.90;;;;;;5025652;28;20360;-71
2020/12/30 10:10:28;;;;;;;16.50;10.10;;;4.90;99.90;;;;;;5025525;28;20026;-71
2020/12/30 10:12:57;;;;;;;12.57;9.23;;;4.90;99.90;;;;;;5025837;28;20041;-71
2020/12/30 10:15:22;;;;;;;13.98;9.23;;;4.90;99.90;;;;;;5022961;28;20018;-71
2020/12/30 10:17:48;;;;;;;13.80;9.60;;;4.90;99.90;;;;;;5022545;28;20042;-71
2020/12/30 10:20:14;;;;;;;16.52;9.88;;;5.00;99.90;;;;;;5024195;28;20029;-71
2020/12/30 10:22:40;;;;;;;13.75;9.05;;;5.00;99.90;;;;;;5057084;28;20087;-71
2020/12/30 10:25:09;;;;;;;15.90;10.00;;;5.00;99.90;;;;;;5026852;28;20052;-71
2020/12/30 10:27:34;;;;;;;12.80;9.55;;;5.10;99.90;;;;;;5058453;28;20680;-71
2020/12/30 10:30:00;;;;;;;12.82;9.50;;;5.10;99.90;;;;;;4331627;28;10000765;-72
2020/12/30 10:32:28;;;;;;;13.60;9.48;;;5.10;99.90;;;;;;5025523;28;20160;-71
2020/12/30 10:34:55;;;;;;;14.48;9.65;;;5.10;99.90;;;;;;5023378;28;20053;-71
2020/12/30 10:37:23;;;;;;;14.45;9.68;;;5.20;99.90;;;;;;5024358;28;20466;-71
2020/12/30 10:39:51;;;;;;;12.93;9.48;;;5.20;99.90;;;;;;5024244;28;20041;-71
2020/12/30 10:42:19;;;;;;;15.93;10.30;;;5.20;99.90;;;;;;5024246;28;20030;-71
2020/12/30 10:44:45;;;;;;;14.98;9.38;;;5.20;99.90;;;;;;5059310;28;20033;-71
2020/12/30 10:47:11;;;;;;;15.20;10.57;;;5.20;99.90;;;;;;5024867;28;20048;-71
2020/12/30 10:49:37;;;;;;;14.52;9.68;;;5.20;99.90;;;;;;5026439;28;20029;-71
2020/12/30 10:52:02;;;;;;;13.48;10.27;;;5.20;99.90;;;;;;5026099;28;20044;-71
2020/12/30 10:54:30;;;;;;;12.82;9.23;;;5.30;99.90;;;;;;5057725;28;20045;-71
2020/12/30 10:56:56;;;;;;;16.70;10.40;;;5.20;99.90;;;;;;5010525;28;20054;-71
2020/12/30 10:59:22;;;;;;;13.75;9.45;;;5.20;99.90;;;;;;5025742;28;20111;-71
2020/12/30 11:01:53;;;;;;;14.35;9.90;;;5.20;99.90;;;;;;5026269;28;20478;-70
2020/12/30 11:04:19;;;;;;;15.73;8.53;;;5.30;99.90;;;;;;5026132;28;20187;-71
2020/12/30 11:06:45;;;;;;;13.35;8.95;;;5.20;99.90;;;;;;5026202;28;20482;-71
2020/12/30 11:09:10;;;;;;;12.50;8.93;;;5.20;99.90;;;;;;5025867;28;20025;-71
2020/12/30 11:11:41;;;;;;;13.20;9.25;;;5.20;99.90;;;;;;5041307;28;20029;-71
2020/12/30 11:14:07;;;;;;;11.40;8.23;;;5.30;99.90;;;;;;5025263;28;20033;-71
2020/12/30 11:16:32;;;;;;;11.65;8.18;;;5.30;99.90;;;;;;5024529;28;20057;-71
2020/12/30 11:19:00;;;;;;;12.60;8.13;;;5.30;99.90;;;;;;5025293;28;20063;-71
2020/12/30 11:21:28;;;;;;;11.25;8.38;;;5.30;99.90;;;;;;5023662;28;20045;-71
2020/12/30 11:23:54;;;;;;;11.18;8.52;;;5.30;99.90;;;;;;5024420;28;20367;-71
2020/12/30 11:26:24;;;;;;;10.32;7.20;;;5.30;99.90;;;;;;5026125;28;20022;-72
2020/12/30 11:28:52;;;;;;;11.03;7.60;;;5.40;99.90;;;;;;4706793;28;10000770;-71
2020/12/30 11:31:18;;;;;;;11.10;7.63;;;5.40;99.90;;;;;;5021776;28;20033;-71
2020/12/30 11:33:46;;;;;;;11.27;7.85;;;5.40;99.90;;;;;;5025106;28;20139;-70
2020/12/30 11:36:11;;;;;;;11.13;7.30;;;5.40;99.90;;;;;;5023960;28;20051;-70
2020/12/30 11:38:37;;;;;;;9.85;6.72;;;5.50;99.90;;;;;;5024731;28;20507;-71
2020/12/30 11:41:08;;;;;;;9.00;6.97;;;5.50;99.90;;;;;;5027325;28;20140;-71
2020/12/30 11:43:34;;;;;;;10.40;7.00;;;5.40;99.90;;;;;;5024650;28;20022;-70
2020/12/30 11:46:00;;;;;;;10.35;6.72;;;5.50;99.90;;;;;;5056978;28;20032;-71
2020/12/30 11:48:31;;;;;;;9.40;6.07;;;5.50;99.90;;;;;;5031555;28;20037;-71
2020/12/30 11:50:58;;;;;;;11.20;7.07;;;5.50;99.90;;;;;;5024878;28;20030;-71
2020/12/30 11:53:24;;;;;;;8.75;6.03;;;5.60;99.90;;;;;;5025465;28;20042;-71
2020/12/30 11:55:49;;;;;;;9.68;6.22;;;5.50;99.90;;;;;;5024884;28;20026;-71
2020/12/30 11:58:15;;;;;;;8.10;5.82;;;5.60;99.90;;;;;;5024864;28;20033;-71
2020/12/30 12:00:41;;;;;;;8.15;5.50;;;5.50;99.90;;;;;;5025667;28;20036;-71
2020/12/30 12:03:06;;;;;;;10.57;6.20;;;5.60;99.90;;;;;;5024844;28;20057;-71
2020/12/30 12:05:32;;;;;;;8.43;5.97;;;5.60;99.90;;;;;;5024259;28;20037;-71
2020/12/30 12:08:00;;;;;;;7.65;5.53;;;5.60;99.90;;;;;;5025790;28;20292;-71
2020/12/30 12:10:25;;;;;;;7.03;5.22;;;5.60;99.90;;;;;;5023952;28;20041;-71
2020/12/30 12:12:55;;;;;;;8.02;5.15;;;5.60;99.90;;;;;;5021393;28;20033;-71
2020/12/30 12:15:21;;;;;;;9.63;5.47;;;5.70;99.90;;;;;;5021079;28;20045;-71
2020/12/30 12:17:49;;;;;;;8.35;5.63;;;5.70;99.90;;;;;;5021633;28;20098;-71
2020/12/30 12:20:17;;;;;;;8.30;5.50;;;5.70;99.90;;;;;;5019716;28;20451;-71
2020/12/30 12:22:45;;;;;;;7.40;4.97;;;5.70;99.90;;;;;;5021933;28;20065;-71
2020/12/30 12:25:13;;;;;;;7.05;4.80;;;5.70;99.90;;;;;;5022668;28;20041;-74
2020/12/30 12:27:39;;;;;;;7.05;4.57;;;5.70;99.90;;;;;;5022558;28;20091;-71
2020/12/30 12:30:04;;;;;;;6.20;4.13;;;5.70;99.90;;;;;;5023221;28;20045;-72
2020/12/30 12:32:32;;;;;;;6.95;4.20;;;5.80;99.90;;;;;;5022807;28;20033;-72
2020/12/30 12:34:58;;;;;;;7.00;4.22;;;5.80;99.90;;;;;;5022951;28;20049;-72
2020/12/30 12:37:25;;;;;;;6.80;4.55;;;5.80;99.90;;;;;;4674127;28;10000362;-72
2020/12/30 12:39:51;;;;;;;7.10;4.28;;;5.80;99.90;;;;;;5052835;28;20042;-71
2020/12/30 12:42:22;;;;;;;6.80;3.80;;;5.80;99.90;;;;;;5023233;28;20029;-72
2020/12/30 12:44:48;;;;;;;8.23;4.75;;;5.80;99.90;;;;;;5039802;28;20029;-72
2020/12/30 12:47:15;;;;;;;6.95;4.40;;;5.70;99.90;;;;;;5010295;28;20183;-71